createdAt,value
2023-04-16T00:02:25.701Z,101556.56
2023-04-16T00:04:54.452Z,101557.47
2023-04-16T00:07:23.472Z,101552.22
2023-04-16T00:09:52.151Z,101555.72
2023-04-16T00:12:22.895Z,101554.84
2023-04-16T00:14:51.536Z,101559.19
2023-04-16T00:17:20.226Z,101561.88
2023-04-16T00:19:48.536Z,101553.09
2023-04-16T00:22:17.195Z,101551.38
2023-04-16T00:24:45.817Z,101554.88
2023-04-16T00:27:14.496Z,101556.56
2023-04-16T00:29:44.444Z,101550.44
2023-04-16T00:32:13.454Z,101546.03
2023-04-16T00:34:41.913Z,101550.47
2023-04-16T00:37:11.104Z,101550.47
2023-04-16T00:39:39.764Z,101548.66
2023-04-16T00:42:08.790Z,101556.56
2023-04-16T00:44:37.584Z,101560.03
2023-04-16T00:47:08.341Z,101553.91
2023-04-16T00:49:37.837Z,101555.69
2023-04-16T00:52:08.551Z,101554.75
2023-04-16T00:54:37.484Z,101552.13
2023-04-16T00:57:07.182Z,101560.00
2023-04-16T00:59:35.820Z,101562.63
2023-04-16T01:02:04.848Z,101559.13
2023-04-16T01:04:36.022Z,101569.63
2023-04-16T01:07:05.680Z,101565.22
2023-04-16T01:09:34.045Z,101571.31
2023-04-16T01:12:05.496Z,101565.19
2023-04-16T01:14:36.576Z,101564.28
2023-04-16T01:17:05.888Z,101563.41
2023-04-16T01:19:37.313Z,101558.97
2023-04-16T01:22:07.709Z,101569.50
2023-04-16T01:24:36.640Z,101566.00
2023-04-16T01:27:05.798Z,101563.38
2023-04-16T01:29:35.226Z,101571.25
2023-04-16T01:32:04.210Z,101557.19
2023-04-16T01:34:36.002Z,101562.44
2023-04-16T01:37:05.350Z,101569.47
2023-04-16T01:39:35.768Z,101561.56
2023-04-16T01:42:04.521Z,101559.84
2023-04-16T01:44:33.512Z,101564.22
2023-04-16T01:47:02.444Z,101564.25
2023-04-16T01:49:31.268Z,101564.25
2023-04-16T01:52:01.180Z,101561.59
2023-04-16T01:54:29.624Z,101570.28
2023-04-16T01:57:01.932Z,101563.25
2023-04-16T01:59:30.264Z,101565.84
2023-04-16T02:02:02.527Z,101568.47
2023-04-16T02:04:31.221Z,101568.47
2023-04-16T02:07:00.146Z,101568.47
2023-04-16T02:09:28.650Z,101570.19
2023-04-16T02:11:59.420Z,101568.44
2023-04-16T02:14:28.119Z,101564.97
2023-04-16T02:16:57.474Z,101573.75
2023-04-16T02:19:44.930Z,101558.84
2023-04-16T02:22:14.098Z,101563.25
2023-04-16T02:24:42.504Z,101560.59
2023-04-16T02:27:13.846Z,101561.44
2023-04-16T02:29:43.306Z,101551.78
2023-04-16T02:32:16.681Z,101571.06
2023-04-16T02:34:47.248Z,101566.66
2023-04-16T02:37:17.748Z,101566.63
2023-04-16T02:39:47.520Z,101576.22
2023-04-16T02:42:18.550Z,101567.47
2023-04-16T02:44:47.340Z,101564.81
2023-04-16T02:47:16.144Z,101564.81
2023-04-16T02:49:44.924Z,101572.69
2023-04-16T02:52:15.601Z,101576.16
2023-04-16T02:54:44.189Z,101569.16
2023-04-16T02:57:13.255Z,101574.47
2023-04-16T02:59:43.355Z,101576.22
2023-04-16T03:02:12.433Z,101577.97
2023-04-16T03:04:41.114Z,101572.72
2023-04-16T03:07:11.269Z,101575.34
2023-04-16T03:09:39.401Z,101572.66
2023-04-16T03:12:08.049Z,101579.63
2023-04-16T03:14:36.512Z,101578.78
2023-04-16T03:17:06.859Z,101583.19
2023-04-16T03:19:35.675Z,101581.38
2023-04-16T03:22:04.413Z,101584.84
2023-04-16T03:24:32.770Z,101589.22
2023-04-16T03:27:02.116Z,101580.44
2023-04-16T03:29:30.753Z,101576.09
2023-04-16T03:32:00.438Z,101587.50
2023-04-16T03:34:30.627Z,101577.91
2023-04-16T03:36:59.648Z,101587.47
2023-04-16T03:39:28.581Z,101588.38
2023-04-16T03:41:57.565Z,101588.31
2023-04-16T03:44:26.115Z,101590.94
2023-04-16T03:46:54.974Z,101596.19
2023-04-16T03:49:24.441Z,101600.59
2023-04-16T03:51:55.607Z,101596.25
2023-04-16T03:54:24.126Z,101597.94
2023-04-16T03:57:01.122Z,101601.41
2023-04-16T03:59:29.585Z,101592.66
2023-04-16T04:01:58.823Z,101593.47
2023-04-16T04:04:28.104Z,101604.84
2023-04-16T04:06:59.024Z,101604.91
2023-04-16T04:09:28.895Z,101605.75
2023-04-16T04:11:58.943Z,101600.47
2023-04-16T04:14:27.593Z,101616.19
2023-04-16T04:16:56.331Z,101611.84
2023-04-16T04:19:25.116Z,101611.81
2023-04-16T04:21:54.042Z,101626.59
2023-04-16T04:24:24.850Z,101625.69
2023-04-16T04:26:54.246Z,101632.69
2023-04-16T04:29:23.688Z,101631.75
2023-04-16T04:31:52.810Z,101629.13
2023-04-16T04:34:21.519Z,101634.38
2023-04-16T04:36:50.371Z,101629.13
2023-04-16T04:39:21.746Z,101634.38
2023-04-16T04:41:52.985Z,101635.22
2023-04-16T04:44:22.193Z,101637.75
2023-04-16T04:46:50.910Z,101636.91
2023-04-16T04:49:20.450Z,101640.38
2023-04-16T04:51:49.937Z,101643.81
2023-04-16T04:54:18.662Z,101644.72
2023-04-16T04:56:47.758Z,101645.63
2023-04-16T04:59:18.057Z,101648.31
2023-04-16T05:01:46.902Z,101650.97
2023-04-16T05:04:15.877Z,101649.22
2023-04-16T05:06:44.951Z,101646.50
2023-04-16T05:09:13.589Z,101650.84
2023-04-16T05:11:43.369Z,101642.97
2023-04-16T05:14:12.196Z,101647.28
2023-04-16T05:16:42.875Z,101651.72
2023-04-16T05:19:11.453Z,101645.59
2023-04-16T05:21:40.821Z,101651.72
2023-04-16T05:24:09.564Z,101652.66
2023-04-16T05:26:38.478Z,101660.53
2023-04-16T05:29:07.299Z,101662.31
2023-04-16T05:31:36.122Z,101662.34
2023-04-16T05:34:06.146Z,101669.41
2023-04-16T05:36:35.112Z,101670.31
2023-04-16T05:39:03.713Z,101675.56
2023-04-16T05:41:32.707Z,101672.94
2023-04-16T05:44:01.382Z,101677.22
2023-04-16T05:46:30.431Z,101681.56
2023-04-16T05:48:59.095Z,101682.41
2023-04-16T05:51:29.290Z,101685.97
2023-04-16T05:53:57.687Z,101677.13
2023-04-16T05:56:27.422Z,101685.91
2023-04-16T05:58:55.825Z,101684.97
2023-04-16T06:01:24.570Z,101691.16
2023-04-16T06:03:53.070Z,101686.75
2023-04-16T06:06:21.997Z,101688.56
2023-04-16T06:08:51.792Z,101697.28
2023-04-16T06:11:20.957Z,101694.75
2023-04-16T06:13:49.850Z,101687.78
2023-04-16T06:16:18.998Z,101696.50
2023-04-16T06:18:47.649Z,101697.31
2023-04-16T06:21:16.931Z,101701.72
2023-04-16T06:23:45.254Z,101687.72
2023-04-16T06:26:15.479Z,101700.94
2023-04-16T06:28:43.901Z,101700.91
2023-04-16T06:31:12.943Z,101706.22
2023-04-16T06:33:41.634Z,101710.56
2023-04-16T06:36:11.600Z,101716.75
2023-04-16T06:38:39.912Z,101714.09
2023-04-16T06:41:08.566Z,101712.44
2023-04-16T06:43:38.414Z,101713.25
2023-04-16T06:46:07.482Z,101718.47
2023-04-16T06:48:35.974Z,101721.94
2023-04-16T06:51:05.492Z,101722.81
2023-04-16T06:53:34.293Z,101725.44
2023-04-16T06:56:03.370Z,101721.09
2023-04-16T06:58:31.912Z,101724.63
2023-04-16T07:01:02.868Z,101719.41
2023-04-16T07:03:31.435Z,101726.47
2023-04-16T07:06:00.443Z,101727.44
2023-04-16T07:08:32.072Z,101725.78
2023-04-16T07:11:01.202Z,101727.63
2023-04-16T07:13:29.683Z,101733.81
2023-04-16T07:15:58.431Z,101731.09
2023-04-16T07:18:28.580Z,101737.22
2023-04-16T07:20:57.516Z,101735.50
2023-04-16T07:23:26.209Z,101734.69
2023-04-16T07:25:55.563Z,101735.63
2023-04-16T07:28:25.426Z,101741.81
2023-04-16T07:30:54.158Z,101738.38
2023-04-16T07:33:22.678Z,101737.50
2023-04-16T07:35:53.413Z,101743.66
2023-04-16T07:38:21.854Z,101743.72
2023-04-16T07:40:50.896Z,101752.53
2023-04-16T07:43:19.320Z,101745.59
2023-04-16T07:45:48.544Z,101745.69
2023-04-16T07:48:17.198Z,101748.28
2023-04-16T07:50:46.265Z,101746.56
2023-04-16T07:53:16.328Z,101747.47
2023-04-16T07:55:45.172Z,101754.50
2023-04-16T07:58:14.728Z,101752.78
2023-04-16T08:00:44.043Z,101752.84
2023-04-16T08:03:12.678Z,101753.78
2023-04-16T08:05:41.717Z,101753.84
2023-04-16T08:08:10.772Z,101754.00
2023-04-16T08:10:41.753Z,101759.34
2023-04-16T08:13:10.726Z,101766.34
2023-04-16T08:15:39.637Z,101769.88
2023-04-16T08:18:13.000Z,101767.25
2023-04-16T08:20:42.154Z,101762.88
2023-04-16T08:23:10.664Z,101769.97
2023-04-16T08:25:39.523Z,101777.03
2023-04-16T08:28:09.768Z,101765.63
2023-04-16T08:30:38.814Z,101772.66
2023-04-16T08:33:07.722Z,101770.03
2023-04-16T08:35:36.497Z,101770.94
2023-04-16T08:38:05.488Z,101769.22
2023-04-16T08:40:36.478Z,101771.00
2023-04-16T08:43:07.300Z,101775.34
2023-04-16T08:45:38.066Z,101769.91
2023-04-16T08:48:07.863Z,101766.31
2023-04-16T08:50:37.682Z,101772.34
2023-04-16T08:53:08.149Z,101783.66
2023-04-16T08:55:40.355Z,101784.72
2023-04-16T08:58:15.183Z,101783.91
2023-04-16T09:00:46.425Z,101790.97
2023-04-16T09:03:15.240Z,101791.97
2023-04-16T09:05:46.076Z,101792.00
2023-04-16T09:08:14.741Z,101788.56
2023-04-16T09:10:44.677Z,101779.81
2023-04-16T09:13:16.559Z,101794.75
2023-04-16T09:15:47.907Z,101801.75
2023-04-16T09:18:16.394Z,101797.34
2023-04-16T09:20:45.625Z,101798.25
2023-04-16T09:23:14.361Z,101804.38
2023-04-16T09:25:43.095Z,101800.88
2023-04-16T09:28:13.037Z,101812.31
2023-04-16T09:30:41.894Z,101810.56
2023-04-16T09:33:23.032Z,101805.31
2023-04-16T09:35:53.798Z,101807.91
2023-04-16T09:38:22.727Z,101805.28
2023-04-16T09:41:08.441Z,101821.94
2023-04-16T09:43:37.171Z,101821.91
2023-04-16T09:46:08.108Z,101825.44
2023-04-16T09:48:38.400Z,101820.16
2023-04-16T09:51:08.453Z,101815.81
2023-04-16T09:53:36.899Z,101817.59
2023-04-16T09:56:08.091Z,101824.59
2023-04-16T09:58:38.018Z,101827.25
2023-04-16T10:01:11.009Z,101829.03
2023-04-16T10:03:42.261Z,101828.19
2023-04-16T10:06:19.585Z,101831.69
2023-04-16T10:08:50.225Z,101830.81
2023-04-16T10:11:20.571Z,101840.47
2023-04-16T10:13:49.047Z,101834.25
2023-04-16T10:16:18.997Z,101834.19
2023-04-16T10:18:49.247Z,101840.41
2023-04-16T10:21:18.137Z,101843.13
2023-04-16T10:23:47.465Z,101834.34
2023-04-16T10:26:16.783Z,101839.59
2023-04-16T10:28:46.839Z,101835.19
2023-04-16T10:31:16.436Z,101836.94
2023-04-16T10:33:46.335Z,101842.19
2023-04-16T10:36:18.529Z,101837.78
2023-04-16T10:38:50.548Z,101834.28
2023-04-16T10:41:21.728Z,101842.22
2023-04-16T10:43:52.105Z,101841.38
2023-04-16T10:46:22.799Z,101844.00
2023-04-16T10:48:53.956Z,101843.09
2023-04-16T10:51:29.959Z,101852.78
2023-04-16T10:53:59.716Z,101853.59
2023-04-16T10:56:30.613Z,101846.50
2023-04-16T10:58:59.780Z,101858.78
2023-04-16T11:01:33.103Z,101869.25
2023-04-16T11:04:03.358Z,101872.78
2023-04-16T11:06:33.766Z,101856.94
2023-04-16T11:09:05.886Z,101873.66
2023-04-16T11:11:39.772Z,101882.47
2023-04-16T11:14:10.567Z,101875.50
2023-04-16T11:16:42.373Z,101877.22
2023-04-16T11:19:17.844Z,101885.09
2023-04-16T11:21:48.584Z,101884.19
2023-04-16T11:24:17.213Z,101885.09
2023-04-16T11:26:46.005Z,101884.19
2023-04-16T11:29:16.203Z,101885.09
2023-04-16T11:31:52.293Z,101883.44
2023-04-16T11:34:21.716Z,101892.31
2023-04-16T11:36:53.358Z,101887.91
2023-04-16T11:39:21.794Z,101887.03
2023-04-16T11:41:52.584Z,101887.91
2023-04-16T11:44:22.688Z,101884.28
2023-04-16T11:46:52.003Z,101893.09
2023-04-16T11:49:29.281Z,101901.94
2023-04-16T11:51:59.942Z,101907.25
2023-04-16T11:54:35.056Z,101901.97
2023-04-16T11:57:05.176Z,101904.63
2023-04-16T11:59:33.796Z,101906.38
2023-04-16T12:02:02.834Z,101909.88
2023-04-16T12:04:34.871Z,101902.00
2023-04-16T12:07:09.423Z,101905.47
2023-04-16T12:09:40.406Z,101901.09
2023-04-16T12:12:31.158Z,101898.47
2023-04-16T12:15:03.944Z,101904.63
2023-04-16T12:17:34.172Z,101901.94
2023-04-16T12:20:05.993Z,101903.72
2023-04-16T12:22:37.656Z,101902.84
2023-04-16T12:25:08.898Z,101911.63
2023-04-16T12:27:46.871Z,101914.22
2023-04-16T12:30:16.932Z,101915.88
2023-04-16T12:32:49.902Z,101917.56
2023-04-16T12:35:32.556Z,101925.34
2023-04-16T12:38:03.659Z,101913.72
2023-04-16T12:40:34.810Z,101911.91
2023-04-16T12:43:03.791Z,101916.31
2023-04-16T12:45:32.481Z,101924.31
2023-04-16T12:48:01.521Z,101924.31
2023-04-16T12:50:30.289Z,101920.78
2023-04-16T12:52:59.812Z,101923.53
2023-04-16T12:55:29.916Z,101921.78
2023-04-16T12:57:59.532Z,101929.59
2023-04-16T13:00:28.157Z,101926.16
2023-04-16T13:02:56.961Z,101933.22
2023-04-16T13:05:25.383Z,101935.13
2023-04-16T13:07:54.076Z,101933.44
2023-04-16T13:10:23.685Z,101935.22
2023-04-16T13:12:54.061Z,101936.00
2023-04-16T13:15:22.506Z,101927.25
2023-04-16T13:17:51.507Z,101927.25
2023-04-16T13:20:20.509Z,101920.19
2023-04-16T13:22:50.466Z,101944.81
2023-04-16T13:25:18.971Z,101941.22
2023-04-16T13:27:48.511Z,101936.72
2023-04-16T13:30:18.698Z,101937.56
2023-04-16T13:32:47.839Z,101938.38
2023-04-16T13:35:16.275Z,101934.91
2023-04-16T13:37:46.180Z,101938.31
2023-04-16T13:40:14.791Z,101934.69
2023-04-16T13:42:45.911Z,101944.47
2023-04-16T13:45:14.641Z,101938.38
2023-04-16T13:47:44.862Z,101934.91
2023-04-16T13:50:13.532Z,101935.00
2023-04-16T13:52:42.494Z,101945.56
2023-04-16T13:55:14.017Z,101944.72
2023-04-16T13:57:43.016Z,101939.38
2023-04-16T14:00:13.325Z,101942.84
2023-04-16T14:02:46.062Z,101940.25
2023-04-16T14:05:14.863Z,101946.41
2023-04-16T14:07:43.670Z,101944.59
2023-04-16T14:10:12.467Z,101944.38
2023-04-16T14:12:41.578Z,101946.03
2023-04-16T14:15:11.338Z,101940.78
2023-04-16T14:17:40.113Z,101940.75
2023-04-16T14:20:11.853Z,101944.38
2023-04-16T14:22:42.614Z,101942.63
2023-04-16T14:25:11.244Z,101945.34
2023-04-16T14:27:41.508Z,101951.50
2023-04-16T14:30:10.055Z,101950.53
2023-04-16T14:32:39.034Z,101948.75
2023-04-16T14:35:10.438Z,101960.88
2023-04-16T14:37:39.170Z,101957.41
2023-04-16T14:40:09.837Z,101953.97
2023-04-16T14:42:38.869Z,101956.59
2023-04-16T14:45:09.573Z,101952.28
2023-04-16T14:47:45.899Z,101953.09
2023-04-16T14:50:16.523Z,101952.16
2023-04-16T14:52:45.206Z,101956.50
2023-04-16T14:55:13.833Z,101959.13
2023-04-16T14:57:44.237Z,101959.81
2023-04-16T15:00:17.308Z,101964.13
2023-04-16T15:02:46.518Z,101961.38
2023-04-16T15:05:16.769Z,101963.16
2023-04-16T15:07:48.137Z,101968.44
2023-04-16T15:10:17.329Z,101968.44
2023-04-16T15:12:46.102Z,101966.59
2023-04-16T15:15:14.864Z,101975.28
2023-04-16T15:17:45.336Z,101977.81
2023-04-16T15:20:14.163Z,101979.50
2023-04-16T15:22:44.806Z,101976.03
2023-04-16T15:25:13.563Z,101982.09
2023-04-16T15:27:42.308Z,101977.72
2023-04-16T15:30:12.748Z,101984.78
2023-04-16T15:32:42.089Z,101976.03
2023-04-16T15:35:11.491Z,101986.47
2023-04-16T15:37:41.060Z,101986.47
2023-04-16T15:40:11.208Z,101982.84
2023-04-16T15:42:40.513Z,101983.66
2023-04-16T15:45:09.345Z,101994.88
2023-04-16T15:47:40.194Z,101995.72
2023-04-16T15:50:10.329Z,101993.13
2023-04-16T15:52:39.552Z,101994.91
2023-04-16T15:55:08.360Z,101991.41
2023-04-16T15:57:38.464Z,101993.13
2023-04-16T16:00:13.469Z,101992.19
2023-04-16T16:02:43.089Z,101999.13
2023-04-16T16:05:12.560Z,101999.06
2023-04-16T16:07:41.543Z,102001.59
2023-04-16T16:10:13.056Z,101999.84
2023-04-16T16:12:43.611Z,101997.22
2023-04-16T16:15:12.210Z,102006.88
2023-04-16T16:17:41.558Z,102005.03
2023-04-16T16:20:12.901Z,102010.19
2023-04-16T16:22:45.345Z,102009.34
2023-04-16T16:25:14.109Z,102007.59
2023-04-16T16:27:44.259Z,102008.34
2023-04-16T16:30:13.814Z,102008.22
2023-04-16T16:32:44.398Z,102023.09
2023-04-16T16:35:13.088Z,102014.19
2023-04-16T16:37:41.736Z,102025.53
2023-04-16T16:40:11.423Z,102017.69
2023-04-16T16:42:40.576Z,102021.03
2023-04-16T16:45:12.215Z,102022.72
2023-04-16T16:47:41.754Z,102022.75
2023-04-16T16:50:11.976Z,102021.91
2023-04-16T16:52:41.165Z,102023.66
2023-04-16T16:55:11.351Z,102014.66
2023-04-16T16:57:41.334Z,102019.88
2023-04-16T17:00:14.605Z,102026.75
2023-04-16T17:02:43.866Z,102028.50
2023-04-16T17:05:12.958Z,102028.44
2023-04-16T17:07:41.938Z,102024.94
2023-04-16T17:10:13.301Z,102036.28
2023-04-16T17:12:42.512Z,102031.94
2023-04-16T17:15:14.006Z,102033.69
2023-04-16T17:17:43.293Z,102035.38
2023-04-16T17:20:12.702Z,102036.31
2023-04-16T17:22:41.491Z,102043.22
2023-04-16T17:25:10.653Z,102045.91
2023-04-16T17:27:39.490Z,102040.59
2023-04-16T17:30:09.693Z,102045.78
2023-04-16T17:32:40.176Z,102037.63
2023-04-16T17:35:10.063Z,102018.13
2023-04-16T17:37:39.166Z,102050.78
2023-04-16T17:40:10.154Z,102054.31
2023-04-16T17:42:38.978Z,102054.28
2023-04-16T17:45:08.370Z,102053.53
2023-04-16T17:47:37.074Z,102059.34
2023-04-16T17:50:08.707Z,102061.97
2023-04-16T17:52:38.397Z,102068.00
2023-04-16T17:55:08.064Z,102058.22
2023-04-16T17:57:37.391Z,102064.47
2023-04-16T18:00:11.124Z,102066.19
2023-04-16T18:02:43.101Z,102059.97
2023-04-16T18:05:13.522Z,102072.25
2023-04-16T18:07:43.792Z,102067.78
2023-04-16T18:10:12.397Z,102071.28
2023-04-16T18:12:41.278Z,102075.56
2023-04-16T18:15:11.020Z,102077.31
2023-04-16T18:17:40.576Z,102080.81
2023-04-16T18:20:11.827Z,102077.25
2023-04-16T18:22:42.585Z,102075.44
2023-04-16T18:25:12.095Z,102077.25
2023-04-16T18:27:41.218Z,102079.94
2023-04-16T18:30:20.093Z,102087.59
2023-04-16T18:33:16.653Z,102088.41
2023-04-16T18:35:41.556Z,102094.59
2023-04-16T18:38:13.748Z,102087.38
2023-04-16T18:40:42.611Z,102104.03
2023-04-16T18:43:11.406Z,102097.13
2023-04-16T18:48:08.774Z,102097.31
2023-04-16T18:50:37.397Z,102105.22
2023-04-16T18:53:06.262Z,102105.06
2023-04-16T18:55:36.133Z,102100.63
2023-04-16T18:58:04.927Z,102107.50
2023-04-16T19:00:34.689Z,102102.28
2023-04-16T19:03:07.147Z,102109.06
2023-04-16T19:05:35.921Z,102107.34
2023-04-16T19:08:05.057Z,102105.72
2023-04-16T19:10:33.572Z,102096.19
2023-04-16T19:13:04.029Z,102104.88
2023-04-16T19:15:34.370Z,102107.59
2023-04-16T19:18:04.030Z,102098.94
2023-04-16T19:20:35.731Z,102104.22
2023-04-16T19:23:05.565Z,102109.34
2023-04-16T19:25:34.500Z,102111.03
2023-04-16T19:28:04.937Z,102113.69
2023-04-16T19:30:33.496Z,102111.09
2023-04-16T19:33:02.700Z,102118.00
2023-04-16T19:35:31.603Z,102119.75
2023-04-16T19:38:00.833Z,102117.22
2023-04-16T19:40:29.480Z,102120.66
2023-04-16T19:42:58.705Z,102113.59
2023-04-16T19:45:29.343Z,102123.03
2023-04-16T19:47:58.457Z,102122.88
2023-04-16T19:50:27.276Z,102122.72
2023-04-16T19:52:56.373Z,102126.94
2023-04-16T19:55:25.402Z,102120.94
2023-04-16T19:57:54.456Z,102125.34
2023-04-16T20:00:23.235Z,102125.38
2023-04-16T20:02:54.668Z,102122.81
2023-04-16T20:05:23.603Z,102124.50
2023-04-16T20:07:52.831Z,102109.34
2023-04-16T20:10:21.617Z,102133.91
2023-04-16T20:12:50.975Z,102113.59
2023-04-16T20:15:20.200Z,102125.25
2023-04-16T20:17:49.258Z,102121.84
2023-04-16T20:20:19.907Z,102130.63
2023-04-16T20:22:48.734Z,102130.72
2023-04-16T20:25:19.189Z,102122.06
2023-04-16T20:27:48.183Z,102128.97
2023-04-16T20:30:16.918Z,102129.09
2023-04-16T20:32:45.816Z,102125.78
2023-04-16T20:35:14.441Z,102123.16
2023-04-16T20:37:44.570Z,102130.06
2023-04-16T20:40:14.112Z,102132.38
2023-04-16T20:42:46.465Z,102130.69
2023-04-16T20:45:15.602Z,102134.28
2023-04-16T20:47:44.934Z,102132.53
2023-04-16T20:50:13.809Z,102122.75
2023-04-16T20:52:43.739Z,102129.78
2023-04-16T20:55:14.461Z,102141.09
2023-04-16T20:57:43.293Z,102141.09
2023-04-16T21:00:13.070Z,102141.91
2023-04-16T21:02:42.416Z,102129.56
2023-04-16T21:05:13.921Z,102137.59
2023-04-16T21:07:43.505Z,102142.84
2023-04-16T21:10:12.744Z,102145.47
2023-04-16T21:12:43.177Z,102144.59
2023-04-16T21:15:12.347Z,102140.28
2023-04-16T21:17:41.453Z,102148.94
2023-04-16T21:20:13.662Z,102142.03
2023-04-16T21:22:42.489Z,102143.81
2023-04-16T21:25:11.409Z,102144.53
2023-04-16T21:27:40.301Z,102146.28
2023-04-16T21:30:11.825Z,102145.25
2023-04-16T21:32:41.077Z,102140.78
2023-04-16T21:35:11.043Z,102138.16
2023-04-16T21:37:39.897Z,102141.66
2023-04-16T21:40:09.551Z,102138.88
2023-04-16T21:42:40.052Z,102140.66
2023-04-16T21:45:12.244Z,102137.19
2023-04-16T21:47:41.034Z,102141.63
2023-04-16T21:50:10.528Z,102141.59
2023-04-16T21:52:46.222Z,102134.44
2023-04-16T21:55:15.319Z,102132.69
2023-04-16T21:57:44.472Z,102130.84
2023-04-16T22:00:15.553Z,102129.84
2023-04-16T22:02:45.524Z,102132.53
2023-04-16T22:05:14.093Z,102134.44
2023-04-16T22:07:43.098Z,102136.22
2023-04-16T22:10:14.322Z,102134.56
2023-04-16T22:12:45.008Z,102135.53
2023-04-16T22:15:15.690Z,102140.63
2023-04-16T22:17:44.765Z,102137.09
2023-04-16T22:20:14.044Z,102145.00
2023-04-16T22:22:43.536Z,102144.09
2023-04-16T22:25:12.484Z,102143.28
2023-04-16T22:27:41.427Z,102139.91
2023-04-16T22:30:10.756Z,102138.19
2023-04-16T22:32:41.290Z,102143.56
2023-04-16T22:35:10.944Z,102144.22
2023-04-16T22:37:39.856Z,102146.66
2023-04-16T22:40:10.921Z,102140.44
2023-04-16T22:42:39.741Z,102148.38
2023-04-16T22:45:09.112Z,102156.38
2023-04-16T22:47:38.041Z,102158.00
2023-04-16T22:50:10.947Z,102151.03
2023-04-16T22:52:39.945Z,102151.13
2023-04-16T22:55:09.322Z,102152.97
2023-04-16T22:57:38.085Z,102153.78
2023-04-16T23:00:14.854Z,102158.16
2023-04-16T23:02:45.038Z,102163.38
2023-04-16T23:05:17.897Z,102159.75
2023-04-16T23:07:47.124Z,102160.59
2023-04-16T23:10:16.727Z,102161.47
2023-04-16T23:12:46.167Z,102159.63
2023-04-16T23:15:14.634Z,102160.63
2023-04-16T23:17:43.616Z,102161.59
2023-04-16T23:20:15.212Z,102161.53
2023-04-16T23:22:43.900Z,102158.84
2023-04-16T23:25:12.699Z,102155.38
2023-04-16T23:27:41.495Z,102160.69
2023-04-16T23:30:11.094Z,102167.84
2023-04-16T23:32:39.887Z,102164.31
2023-04-16T23:35:09.546Z,102160.84
2023-04-16T23:37:39.870Z,102164.22
2023-04-16T23:40:09.365Z,102157.19
2023-04-16T23:42:38.661Z,102166.09
2023-04-16T23:45:08.157Z,102162.75
2023-04-16T23:47:37.205Z,102165.38
2023-04-16T23:50:06.936Z,102164.63
2023-04-16T23:52:36.033Z,102166.25
2023-04-16T23:55:06.897Z,102161.94
2023-04-16T23:57:35.999Z,102145.09
